Time;durP1;ratioP1;P1;durP2;ratioP2;P2;SDS_P1;SDS_P2;PMS_P1;PMS_P2;Temp;Humidity;BMP_temperature;BMP_pressure;BME280_temperature;BME280_humidity;BME280_pressure;Samples;Min_cycle;Max_cycle;Signal;HPM_P1;HPM_P2
2023/02/04 00:01:38;;;;;;;3.53;1.40;;;;;;;6.22;71.71;99675.16;5053059;27;101734;-83
2023/02/04 00:04:04;;;;;;;2.73;1.10;;;;;;;6.22;71.74;99676.94;5040865;27;97202;-84
2023/02/04 00:06:30;;;;;;;1.60;0.93;;;;;;;5.97;71.36;99654.13;5059518;27;96874;-83
2023/02/04 00:08:55;;;;;;;4.00;0.90;;;;;;;5.94;70.99;99656.81;5044044;27;101042;-83
2023/02/04 00:11:21;;;;;;;2.53;1.00;;;;;;;6.12;70.72;99677.16;5075903;27;100791;-83
2023/02/04 00:13:47;;;;;;;3.03;1.17;;;;;;;6.19;70.32;99696.09;5038128;27;97070;-84
2023/02/04 00:16:12;;;;;;;0.80;0.60;;;;;;;6.11;69.99;99682.44;5049321;27;98008;-83
2023/02/04 00:18:38;;;;;;;2.33;0.83;;;;;;;6.15;68.77;99706.66;5041455;27;100909;-83
2023/02/04 00:21:03;;;;;;;0.60;0.57;;;;;;;6.08;68.99;99703.38;5041112;27;101641;-83
2023/02/04 00:23:29;;;;;;;1.13;0.70;;;;;;;6.01;67.83;99693.97;5038389;27;96864;-83
2023/02/04 00:25:55;;;;;;;1.67;0.80;;;;;;;6.02;67.18;99712.19;5027435;27;96879;-83
2023/02/04 00:28:20;;;;;;;1.43;0.80;;;;;;;5.89;66.68;99695.97;5044652;27;101158;-82
2023/02/04 00:30:46;;;;;;;1.33;0.80;;;;;;;6.03;65.65;99718.25;5038576;27;101542;-84
2023/02/04 00:33:12;;;;;;;1.87;0.90;;;;;;;5.98;65.94;99733.97;5034660;27;97852;-83
2023/02/04 00:35:37;;;;;;;2.87;0.83;;;;;;;5.85;66.11;99728.19;5058375;27;97134;-83
2023/02/04 00:38:04;;;;;;;1.60;0.80;;;;;;;5.98;66.22;99746.16;5043629;27;98313;-82
2023/02/04 00:40:30;;;;;;;1.40;0.70;;;;;;;5.99;65.82;99774.81;5041099;27;101460;-83
2023/02/04 00:42:55;;;;;;;2.00;0.80;;;;;;;5.97;66.13;99767.91;5054072;27;97948;-83
2023/02/04 00:45:21;;;;;;;1.40;0.70;;;;;;;5.93;66.05;99766.22;5074287;27;97028;-83
2023/02/04 00:47:47;;;;;;;3.03;0.93;;;;;;;5.87;66.53;99770.69;5058122;27;98330;-86
2023/02/04 00:50:12;;;;;;;0.83;0.70;;;;;;;5.99;66.43;99776.53;5057613;27;101912;-83
2023/02/04 00:52:38;;;;;;;1.17;0.90;;;;;;;5.93;66.31;99767.09;5055511;27;96743;-81
2023/02/04 00:55:04;;;;;;;1.40;1.08;;;;;;;5.89;66.70;99781.06;5039752;27;96997;-80
2023/02/04 00:57:29;;;;;;;1.47;0.97;;;;;;;5.89;66.38;99789.75;5051409;27;101150;-83
2023/02/04 00:59:55;;;;;;;2.72;1.20;;;;;;;5.92;66.82;99795.78;5038981;27;101605;-82
2023/02/04 01:02:21;;;;;;;2.00;1.10;;;;;;;5.94;66.81;99799.25;5040640;27;97138;-82
2023/02/04 01:04:46;;;;;;;2.60;0.90;;;;;;;5.96;66.79;99798.28;5039537;27;97231;-85
2023/02/04 01:07:12;;;;;;;3.07;1.00;;;;;;;5.81;66.79;99783.84;5055892;27;102260;-81
2023/02/04 01:09:37;;;;;;;1.52;0.80;;;;;;;5.93;66.86;99819.22;5039457;27;101787;-83
2023/02/04 01:12:03;;;;;;;2.77;1.10;;;;;;;5.82;67.14;99801.22;5033320;27;97435;-81
2023/02/04 01:14:29;;;;;;;1.47;1.00;;;;;;;5.67;67.22;99797.19;5039080;27;96771;-82
2023/02/04 01:16:54;;;;;;;2.47;1.30;;;;;;;5.80;66.91;99825.56;5052734;27;100999;-83
2023/02/04 01:19:20;;;;;;;3.20;1.10;;;;;;;5.64;66.94;99806.81;5050972;27;100845;-82
2023/02/04 01:21:46;;;;;;;1.63;0.70;;;;;;;5.77;67.16;99836.91;5054311;27;97281;-82
2023/02/04 01:24:11;;;;;;;2.30;1.00;;;;;;;5.75;67.40;99848.25;5034282;27;96793;-81
2023/02/04 01:26:57;;;;;;;3.57;1.27;;;;;;;5.71;67.40;99841.41;5053180;27;98947;-79
2023/02/04 01:29:22;;;;;;;2.53;1.40;;;;;;;5.68;67.50;99863.16;5042475;27;101107;-81
2023/02/04 01:31:49;;;;;;;1.77;1.10;;;;;;;5.68;67.10;99855.34;5038534;27;97453;-82
2023/02/04 01:34:15;;;;;;;1.90;1.15;;;;;;;5.67;67.07;99866.63;5065884;27;96993;-81
2023/02/04 01:36:40;;;;;;;1.30;1.10;;;;;;;5.55;67.29;99865.16;5057035;27;102063;-81
2023/02/04 01:39:06;;;;;;;1.90;1.13;;;;;;;5.54;67.46;99876.47;5063513;27;97951;-80
2023/02/04 01:41:31;;;;;;;3.60;1.60;;;;;;;5.61;66.85;99931.88;5060781;27;97377;-82
2023/02/04 01:43:58;;;;;;;3.17;2.10;;;;;;;5.45;66.33;99939.13;5032620;27;97931;-80
2023/02/04 01:46:23;;;;;;;5.33;3.27;;;;;;;5.47;66.10;99966.00;5053003;27;101148;-80
2023/02/04 01:48:49;;;;;;;5.67;4.43;;;;;;;5.28;64.97;99988.03;5027217;27;101697;-82
2023/02/04 01:51:16;;;;;;;6.90;5.60;;;;;;;5.30;64.15;100007.09;5069454;27;97283;-83
2023/02/04 01:53:41;;;;;;;8.30;5.63;;;;;;;5.22;64.11;100036.69;5033025;27;98172;-83
2023/02/04 01:56:17;;;;;;;7.77;5.93;;;;;;;5.18;63.92;100062.81;5037667;27;101358;-82
2023/02/04 01:58:43;;;;;;;6.80;5.77;;;;;;;5.09;62.86;100048.22;5036661;27;101069;-81
2023/02/04 02:01:14;;;;;;;10.13;6.07;;;;;;;5.05;62.76;100077.75;5028560;27;96824;-80
2023/02/04 02:03:40;;;;;;;8.13;6.33;;;;;;;5.06;62.59;100097.69;5040558;27;96861;-84
2023/02/04 02:06:08;;;;;;;7.57;6.23;;;;;;;5.05;62.17;100098.56;5049614;27;101188;-81
2023/02/04 02:08:35;;;;;;;10.27;6.57;;;;;;;5.02;62.10;100131.56;5037233;27;97512;-80
2023/02/04 02:11:01;;;;;;;8.77;6.60;;;;;;;4.98;61.53;100146.38;5052525;27;97657;-84
2023/02/04 02:13:26;;;;;;;7.70;6.03;;;;;;;4.88;61.82;100137.81;5023023;27;97841;-81
2023/02/04 02:15:52;;;;;;;8.50;6.77;;;;;;;4.96;61.79;100175.00;5026095;27;101952;-81
2023/02/04 02:18:17;;;;;;;8.47;6.47;;;;;;;4.97;62.06;100200.16;5039434;27;101755;-80
2023/02/04 02:20:44;;;;;;;8.20;6.10;;;;;;;4.95;61.65;100214.91;5039096;27;98033;-81
2023/02/04 02:23:18;;;;;;;7.37;5.93;;;;;;;4.97;61.79;100220.97;5040146;27;97181;-81
2023/02/04 02:25:44;;;;;;;6.83;5.37;;;;;;;4.88;61.25;100249.66;5067959;27;98052;-81
2023/02/04 02:28:13;;;;;;;8.33;5.97;;;;;;;4.92;61.22;100261.78;5053132;27;102062;-82
2023/02/04 02:30:39;;;;;;;7.53;5.57;;;;;;;4.90;61.44;100288.69;5066871;27;96803;-80
2023/02/04 02:33:06;;;;;;;7.00;5.23;;;;;;;4.87;61.17;100294.78;5035931;27;98261;-81
2023/02/04 02:35:32;;;;;;;7.70;5.17;;;;;;;4.90;60.57;100312.09;5056364;27;100969;-81
2023/02/04 02:37:58;;;;;;;7.60;5.33;;;;;;;4.83;60.12;100346.81;5052815;27;101216;-80
2023/02/04 02:40:24;;;;;;;8.50;4.80;;;;;;;4.71;60.38;100337.41;5031419;27;97164;-80
2023/02/04 02:42:51;;;;;;;6.90;4.87;;;;;;;4.76;60.19;100351.25;5069153;27;98040;-83
2023/02/04 02:45:25;;;;;;;6.50;4.43;;;;;;;4.75;59.72;100380.72;5057461;27;98452;-82
2023/02/04 02:47:51;;;;;;;5.47;4.23;;;;;;;4.71;58.91;100390.31;5023728;27;101428;-85
2023/02/04 02:50:20;;;;;;;7.50;4.60;;;;;;;4.70;59.83;100403.31;5056653;27;97254;-81
2023/02/04 02:52:46;;;;;;;6.77;3.97;;;;;;;4.69;59.75;100417.19;5053436;27;96871;-81
2023/02/04 02:55:17;;;;;;;6.03;3.77;;;;;;;4.70;59.62;100432.78;5058233;27;97594;-81
2023/02/04 02:57:45;;;;;;;5.90;4.18;;;;;;;4.67;59.81;100451.00;5058538;27;101063;-80
2023/02/04 03:00:25;;;;;;;10.13;4.07;;;;;;;4.62;59.39;100438.91;5055895;27;97356;-81
2023/02/04 03:02:59;;;;;;;4.57;3.50;;;;;;;4.61;59.99;100474.47;5040296;27;96900;-82
2023/02/04 03:05:26;;;;;;;;;;;;;;;4.58;59.79;100482.28;5061317;27;98082;-81
2023/02/04 03:07:51;;;;;;;5.63;3.30;;;;;;;4.54;59.25;100504.84;5042376;27;100895;-85
2023/02/04 03:10:17;;;;;;;3.97;2.90;;;;;;;4.55;59.21;100500.50;5058761;27;97334;-81
2023/02/04 03:12:45;;;;;;;4.97;2.93;;;;;;;4.40;59.44;100524.84;5053335;27;97097;-80
2023/02/04 03:15:11;;;;;;;3.27;2.20;;;;;;;4.36;58.50;100527.47;5040138;27;101049;-81
2023/02/04 03:17:36;;;;;;;3.47;2.47;;;;;;;4.40;59.01;100547.41;5063783;27;97985;-80
2023/02/04 03:20:03;;;;;;;4.20;2.53;;;;;;;4.47;59.24;100562.94;5060007;27;97636;-81
2023/02/04 03:22:29;;;;;;;3.50;2.40;;;;;;;4.53;59.40;100575.91;5042552;27;96916;-80
2023/02/04 03:24:57;;;;;;;3.57;2.60;;;;;;;4.50;59.42;100578.50;5049610;27;97948;-80
2023/02/04 03:27:23;;;;;;;2.80;2.10;;;;;;;4.52;59.53;100630.53;5056699;27;98485;-81
2023/02/04 03:29:49;;;;;;;2.87;1.73;;;;;;;4.34;59.05;100605.47;5039750;27;97048;-80
2023/02/04 03:32:15;;;;;;;2.63;1.77;;;;;;;4.42;59.07;100623.63;5039998;27;97482;-80
2023/02/04 03:34:41;;;;;;;2.60;1.60;;;;;;;4.45;58.96;100647.88;5058337;27;97806;-83
2023/02/04 03:37:06;;;;;;;2.17;1.50;;;;;;;4.39;58.55;100655.69;5074958;27;97887;-80
2023/02/04 03:39:32;;;;;;;4.03;1.70;;;;;;;4.26;58.18;100670.47;5038277;27;97236;-79
2023/02/04 03:41:57;;;;;;;2.27;1.50;;;;;;;4.36;57.58;100699.88;5022372;27;97133;-80
2023/02/04 03:44:25;;;;;;;2.00;1.50;;;;;;;4.34;57.90;100700.78;5024290;27;101780;-80
2023/02/04 03:46:54;;;;;;;2.27;1.53;;;;;;;4.31;57.86;100699.91;5047395;27;97871;-80
2023/02/04 03:49:23;;;;;;;2.53;1.50;;;;;;;4.40;58.07;100725.00;5027948;27;96756;-81
2023/02/04 03:51:48;;;;;;;3.37;1.60;;;;;;;4.36;57.76;100728.47;5025957;27;96970;-79
2023/02/04 03:54:14;;;;;;;4.33;2.13;;;;;;;4.31;57.60;100732.84;5022082;27;99486;-81
2023/02/04 03:56:40;;;;;;;4.67;1.60;;;;;;;4.36;57.50;100748.41;5070515;27;97439;-80
2023/02/04 03:59:05;;;;;;;4.10;2.33;;;;;;;4.36;57.93;100759.66;5036295;27;97508;-80
2023/02/04 04:01:31;;;;;;;3.67;2.13;;;;;;;4.37;57.38;100796.94;5041953;27;96897;-81
2023/02/04 04:03:57;;;;;;;6.00;2.43;;;;;;;4.31;57.23;100792.63;5028455;27;100961;-80
2023/02/04 04:06:22;;;;;;;4.70;2.40;;;;;;;4.27;57.42;100783.06;5055432;27;97434;-82
2023/02/04 04:08:48;;;;;;;6.17;2.50;;;;;;;4.29;56.57;100816.00;5043851;27;97193;-82
2023/02/04 04:11:13;;;;;;;3.90;2.63;;;;;;;4.27;57.01;100822.91;5058046;27;97277;-81
2023/02/04 04:13:39;;;;;;;4.20;2.77;;;;;;;4.28;56.49;100832.47;5027656;27;101833;-80
2023/02/04 04:16:05;;;;;;;4.20;2.43;;;;;;;4.29;56.78;100826.38;5051513;27;98150;-79
2023/02/04 04:18:31;;;;;;;3.63;2.57;;;;;;;4.26;56.67;100848.94;5048613;27;97446;-79
2023/02/04 04:20:57;;;;;;;4.27;2.80;;;;;;;4.28;56.46;100852.41;5041732;27;97133;-81
2023/02/04 04:23:23;;;;;;;3.37;2.53;;;;;;;4.29;56.17;100852.38;5046084;27;101719;-79
2023/02/04 04:25:49;;;;;;;7.93;3.03;;;;;;;4.28;56.76;100862.78;5056096;27;101622;-81
2023/02/04 04:28:14;;;;;;;3.87;2.40;;;;;;;4.29;56.38;100865.38;5042078;27;96679;-79
2023/02/04 04:30:40;;;;;;;4.10;2.50;;;;;;;4.27;56.47;100879.22;5040206;27;97172;-83
2023/02/04 04:33:06;;;;;;;4.30;2.40;;;;;;;4.30;56.49;100897.44;5027397;27;100824;-79
2023/02/04 04:35:31;;;;;;;4.50;2.40;;;;;;;4.24;56.54;100890.50;5041533;27;100924;-81
2023/02/04 04:37:57;;;;;;;4.60;2.37;;;;;;;4.19;56.34;100901.75;5041544;27;96830;-83
2023/02/04 04:40:22;;;;;;;3.47;2.20;;;;;;;4.23;56.09;100906.97;5042211;27;97302;-79
2023/02/04 04:42:48;;;;;;;4.47;2.60;;;;;;;4.23;56.35;100930.34;5037976;27;101548;-80
2023/02/04 04:45:13;;;;;;;6.03;3.10;;;;;;;4.15;55.93;100934.66;5045397;27;101094;-80
2023/02/04 04:47:39;;;;;;;4.30;2.30;;;;;;;4.24;56.44;100963.25;5074842;27;96739;-79
2023/02/04 04:50:05;;;;;;;4.57;2.80;;;;;;;4.16;56.49;100962.41;5037693;27;97110;-80
2023/02/04 04:52:30;;;;;;;3.73;2.87;;;;;;;4.19;56.19;100977.09;5068311;27;101494;-80
2023/02/04 04:54:56;;;;;;;5.03;2.80;;;;;;;4.14;55.66;100973.66;5037822;27;100862;-84
2023/02/04 04:57:21;;;;;;;8.73;3.53;;;;;;;4.15;56.11;100994.44;5045753;27;96730;-81
2023/02/04 04:59:47;;;;;;;4.37;2.90;;;;;;;4.08;55.76;100995.28;5054165;27;97279;-82
2023/02/04 05:02:13;;;;;;;3.70;2.60;;;;;;;4.05;55.53;101005.69;5040043;27;97516;-80
2023/02/04 05:04:38;;;;;;;5.07;3.00;;;;;;;4.08;56.00;101022.13;5045308;27;101692;-83
2023/02/04 05:07:04;;;;;;;5.53;3.40;;;;;;;3.93;56.11;101003.91;5045378;27;96719;-79
2023/02/04 05:09:30;;;;;;;4.53;2.93;;;;;;;3.94;56.25;101017.75;5045824;27;97109;-82
2023/02/04 05:11:55;;;;;;;4.57;3.13;;;;;;;4.12;56.16;101061.97;5039924;27;101093;-86
2023/02/04 05:14:21;;;;;;;4.60;2.70;;;;;;;4.07;56.03;101063.69;5037775;27;100887;-79
2023/02/04 05:16:46;;;;;;;5.70;3.33;;;;;;;4.08;56.18;101078.44;5042645;27;97995;-84
2023/02/04 05:19:12;;;;;;;5.50;3.43;;;;;;;4.11;56.23;101088.84;5056127;27;97161;-81
2023/02/04 05:21:37;;;;;;;5.93;3.23;;;;;;;4.00;55.80;101086.19;5054137;27;101717;-80
2023/02/04 05:24:05;;;;;;;4.57;2.87;;;;;;;4.03;55.85;101095.72;5053058;27;101630;-80
2023/02/04 05:26:31;;;;;;;4.63;2.90;;;;;;;4.11;55.61;101122.63;5033654;27;97120;-79
2023/02/04 05:28:59;;;;;;;4.33;2.90;;;;;;;4.04;55.48;101119.13;5054719;27;97031;-83
2023/02/04 05:31:25;;;;;;;6.50;3.70;;;;;;;4.06;55.30;101135.56;5030989;27;101990;-79
2023/02/04 05:33:51;;;;;;;5.73;3.17;;;;;;;4.11;55.07;101142.53;5036331;27;101404;-80
2023/02/04 05:36:16;;;;;;;4.57;3.07;;;;;;;3.94;54.83;101124.25;5053875;27;97260;-83
2023/02/04 05:38:42;;;;;;;4.83;3.40;;;;;;;3.93;55.07;101136.38;5043122;27;96888;-80
2023/02/04 05:41:08;;;;;;;4.13;3.13;;;;;;;3.94;54.77;101138.09;5026772;27;101496;-80
2023/02/04 05:43:34;;;;;;;5.77;3.53;;;;;;;4.02;54.69;101161.56;5037130;27;101807;-80
2023/02/04 05:46:00;;;;;;;6.43;4.40;;;;;;;4.01;54.95;101159.78;5023661;27;96725;-83
2023/02/04 05:48:25;;;;;;;8.60;4.00;;;;;;;4.00;55.28;101174.53;5043238;27;97974;-79
2023/02/04 05:50:51;;;;;;;5.43;3.33;;;;;;;4.03;55.04;101190.13;5049784;27;101489;-79
2023/02/04 05:53:17;;;;;;;7.20;3.33;;;;;;;4.02;55.50;101196.19;5070333;27;97797;-80
2023/02/04 05:55:42;;;;;;;5.57;3.43;;;;;;;3.98;55.15;101201.34;5053952;27;97308;-79
2023/02/04 05:58:08;;;;;;;4.97;3.37;;;;;;;3.97;55.34;101216.06;5034938;27;96905;-79
2023/02/04 06:00:33;;;;;;;5.27;3.60;;;;;;;3.99;55.19;101218.69;5051841;27;97492;-80
2023/02/04 06:02:59;;;;;;;6.03;3.43;;;;;;;3.98;55.30;101224.72;5028455;27;101212;-84
2023/02/04 06:05:24;;;;;;;6.37;3.27;;;;;;;3.92;55.23;101224.69;5050388;27;97315;-78
2023/02/04 06:07:50;;;;;;;6.97;3.80;;;;;;;3.96;55.54;101236.84;5030199;27;98355;-78
2023/02/04 06:10:16;;;;;;;8.30;4.03;;;;;;;3.97;55.98;101254.16;5055989;27;101245;-81
2023/02/04 06:12:41;;;;;;;6.67;4.00;;;;;;;3.99;55.80;101261.13;5042643;27;101730;-79
2023/02/04 06:15:07;;;;;;;5.20;3.53;;;;;;;4.02;55.55;101268.94;5040405;27;97273;-80
2023/02/04 06:17:33;;;;;;;5.13;4.10;;;;;;;4.01;55.60;101282.78;5040289;27;97106;-79
2023/02/04 06:19:58;;;;;;;6.70;3.87;;;;;;;3.99;55.63;101283.66;5068591;27;97643;-84
2023/02/04 06:22:25;;;;;;;5.73;3.70;;;;;;;3.99;55.88;101301.84;5036733;27;97404;-80
2023/02/04 06:24:51;;;;;;;6.43;3.30;;;;;;;4.00;56.04;101309.63;5052710;27;98583;-79
2023/02/04 06:27:22;;;;;;;6.60;3.77;;;;;;;3.99;56.23;101320.88;5039647;27;96795;-79
2023/02/04 06:29:52;;;;;;;5.37;3.97;;;;;;;4.07;56.08;101333.91;5048742;27;101837;-81
2023/02/04 06:32:18;;;;;;;5.37;3.80;;;;;;;3.92;56.00;101326.00;5041304;27;97469;-80
2023/02/04 06:34:44;;;;;;;5.50;3.70;;;;;;;3.90;56.19;101339.00;5048130;27;96796;-81
2023/02/04 06:37:10;;;;;;;7.33;4.03;;;;;;;3.97;56.32;101358.09;5050035;27;96814;-79
2023/02/04 06:39:35;;;;;;;7.10;4.03;;;;;;;3.92;56.76;101350.25;5069156;27;97456;-79
2023/02/04 06:42:01;;;;;;;6.17;4.07;;;;;;;3.95;56.71;101371.06;5036211;27;100709;-88
2023/02/04 06:44:27;;;;;;;6.47;3.77;;;;;;;3.97;56.58;101378.88;5058222;27;97919;-82
2023/02/04 06:46:52;;;;;;;6.30;4.00;;;;;;;3.82;56.77;101366.63;5040624;27;97241;-82
2023/02/04 06:49:18;;;;;;;7.37;3.87;;;;;;;3.98;56.53;101396.19;5049215;27;100843;-83
2023/02/04 06:51:44;;;;;;;5.47;3.70;;;;;;;3.81;56.53;101385.63;5047137;27;98625;-80
2023/02/04 06:54:09;;;;;;;7.83;3.67;;;;;;;3.85;56.51;101397.81;5064612;27;96737;-77
2023/02/04 06:56:35;;;;;;;4.90;3.47;;;;;;;3.82;56.43;101403.84;5047549;27;97242;-81
2023/02/04 06:59:00;;;;;;;6.47;3.50;;;;;;;3.93;56.81;101421.28;5034120;27;100959;-88
2023/02/04 07:01:26;;;;;;;8.20;3.80;;;;;;;3.94;56.04;101442.06;5048927;27;102041;-85
2023/02/04 07:03:51;;;;;;;5.33;3.30;;;;;;;3.92;56.46;101448.97;5070620;27;96752;-81
2023/02/04 07:06:17;;;;;;;5.33;3.10;;;;;;;3.96;56.32;101457.69;5034484;27;97295;-81
2023/02/04 07:08:42;;;;;;;6.13;3.77;;;;;;;3.92;56.75;101463.69;5055300;27;101120;-82
2023/02/04 07:11:08;;;;;;;4.40;3.17;;;;;;;3.82;56.61;101444.53;5053237;27;101243;-82
2023/02/04 07:13:34;;;;;;;5.50;3.13;;;;;;;3.92;55.91;101476.69;5063747;27;98351;-86
2023/02/04 07:15:59;;;;;;;6.87;3.47;;;;;;;3.95;56.33;101487.09;5052236;27;97255;-83
2023/02/04 07:18:25;;;;;;;6.27;3.60;;;;;;;3.90;56.27;101491.38;5053611;27;101149;-82
2023/02/04 07:20:50;;;;;;;6.93;3.03;;;;;;;3.94;55.82;101495.75;5052808;27;101162;-82
2023/02/04 07:23:16;;;;;;;5.97;2.70;;;;;;;3.92;55.74;101503.53;5035390;27;96892;-84
2023/02/04 07:25:43;;;;;;;5.57;3.10;;;;;;;3.91;55.88;101514.78;5035689;27;97398;-83
2023/02/04 07:28:08;;;;;;;5.13;3.23;;;;;;;3.85;55.30;101507.78;5056509;27;98425;-84
2023/02/04 07:30:34;;;;;;;4.63;2.50;;;;;;;3.88;55.54;101519.94;5046162;27;101169;-84
2023/02/04 07:32:59;;;;;;;5.03;2.67;;;;;;;3.89;55.94;101532.06;5055025;27;97323;-84
2023/02/04 07:35:25;;;;;;;5.47;2.80;;;;;;;3.89;55.43;101528.59;5038204;27;96957;-83
2023/02/04 07:37:50;;;;;;;5.30;2.60;;;;;;;3.93;55.74;101533.88;5036556;27;101940;-85
2023/02/04 07:40:16;;;;;;;4.93;2.43;;;;;;;3.95;55.62;101547.72;5038427;27;101941;-84
2023/02/04 07:42:41;;;;;;;5.30;2.30;;;;;;;4.12;56.18;101549.66;5032372;27;97812;-87
2023/02/04 07:45:12;;;;;;;4.80;2.43;;;;;;;4.39;55.64;101528.31;5058847;27;97383;-83
2023/02/04 07:47:37;;;;;;;5.93;2.30;;;;;;;4.81;54.85;101530.47;5057380;27;101223;-85
2023/02/04 07:50:03;;;;;;;4.83;2.90;;;;;;;5.18;54.60;101547.25;5054664;27;101318;-86
2023/02/04 07:52:29;;;;;;;5.07;2.43;;;;;;;5.51;53.62;101544.88;5039894;27;97975;-84
2023/02/04 07:54:54;;;;;;;5.07;2.77;;;;;;;5.68;52.93;101541.50;5040634;27;96900;-85
2023/02/04 07:57:20;;;;;;;4.73;2.40;;;;;;;5.99;52.47;101552.13;5056984;27;98006;-86
2023/02/04 07:59:46;;;;;;;4.93;2.80;;;;;;;6.20;51.70;101553.06;5051310;27;101421;-89
2023/02/04 08:02:11;;;;;;;4.97;2.30;;;;;;;6.35;51.15;101540.06;5057806;27;97286;-89
2023/02/04 08:04:38;;;;;;;3.77;2.67;;;;;;;6.67;50.40;101562.75;5039921;27;97988;-89
2023/02/04 08:07:03;;;;;;;4.40;2.40;;;;;;;6.85;49.69;101562.78;5035307;27;102240;-92
2023/02/04 08:09:29;;;;;;;3.30;2.23;;;;;;;7.00;49.34;101569.75;5053480;27;100097;-87
2023/02/04 08:11:55;;;;;;;3.53;1.97;;;;;;;7.03;49.01;101546.25;5046283;27;96809;-89
2023/02/04 08:14:20;;;;;;;3.83;2.03;;;;;;;7.28;48.33;101575.84;5041688;27;98368;-90
2023/02/04 08:16:46;;;;;;;3.67;2.07;;;;;;;7.32;47.90;101563.66;5053379;27;101898;-89
2023/02/04 08:19:17;;;;;;;4.87;2.27;;;;;;;7.53;47.46;101581.03;5054174;27;100262;-89
2023/02/04 08:21:44;;;;;;;3.90;2.33;;;;;;;7.64;47.35;101580.13;5037755;27;96904;-88
2023/02/04 08:24:11;;;;;;;5.55;2.45;;;;;;;7.75;47.04;101579.25;5037948;27;97331;-81
2023/02/04 08:26:36;;;;;;;4.88;2.90;;;;;;;7.81;46.91;101589.69;5072419;27;101605;-89
2023/02/04 08:29:02;;;;;;;5.00;2.50;;;;;;;7.89;46.40;101583.56;5053061;27;98163;-90
2023/02/04 08:31:28;;;;;;;5.20;2.75;;;;;;;7.98;46.73;101593.13;5060632;27;97786;-90
2023/02/04 08:33:53;;;;;;;4.45;2.38;;;;;;;7.94;46.63;101573.09;5040006;27;97579;-91
2023/02/04 08:36:19;;;;;;;5.00;2.95;;;;;;;8.06;45.24;101585.28;5055987;27;101211;-90
2023/02/04 08:38:44;;;;;;;5.20;2.67;;;;;;;8.03;45.42;101580.03;5056140;27;100083;-89
2023/02/04 08:41:10;;;;;;;4.03;2.55;;;;;;;8.12;45.75;101593.09;5056922;27;97238;-94
2023/02/04 08:43:35;;;;;;;4.28;2.15;;;;;;;8.28;45.68;101602.59;5018348;27;97064;-82
2023/02/04 08:46:01;;;;;;;3.63;2.47;;;;;;;8.33;45.58;101597.38;5033741;27;101577;-82
2023/02/04 08:48:27;;;;;;;3.50;2.22;;;;;;;8.50;45.38;101600.81;5049843;27;101793;-86
2023/02/04 08:50:52;;;;;;;6.00;2.60;;;;;;;8.64;45.14;101595.50;5055283;27;96778;-84
2023/02/04 08:53:18;;;;;;;6.20;2.50;;;;;;;8.76;44.97;101594.56;5036939;27;96933;-86
2023/02/04 08:55:45;;;;;;;4.80;2.35;;;;;;;8.88;44.15;101589.22;5036848;27;101677;-84
2023/02/04 08:58:10;;;;;;;6.47;2.15;;;;;;;9.09;43.87;101603.06;5031600;27;100345;-83
2023/02/04 09:00:36;;;;;;;6.35;2.25;;;;;;;9.29;43.82;101603.75;5070560;27;97423;-83
2023/02/04 09:03:02;;;;;;;3.83;2.15;;;;;;;9.48;43.62;101612.31;5054440;27;97074;-83
2023/02/04 09:05:27;;;;;;;4.40;2.17;;;;;;;9.42;43.92;101623.72;5033148;27;101298;-84
2023/02/04 09:07:53;;;;;;;4.43;2.30;;;;;;;9.15;43.58;101598.63;5052345;27;101824;-82
2023/02/04 09:10:18;;;;;;;4.75;2.22;;;;;;;8.97;43.31;101623.22;5034662;27;96907;-81
2023/02/04 09:12:44;;;;;;;3.42;2.15;;;;;;;8.74;44.23;101604.16;5043038;27;96958;-77
2023/02/04 09:15:10;;;;;;;3.25;1.90;;;;;;;8.57;44.44;101615.59;5026213;27;101679;-80
2023/02/04 09:17:36;;;;;;;5.10;2.20;;;;;;;8.39;44.82;101628.78;5067605;27;98046;-82
2023/02/04 09:20:02;;;;;;;6.13;2.00;;;;;;;8.15;44.99;101630.56;5036738;27;96769;-82
2023/02/04 09:22:28;;;;;;;3.42;2.05;;;;;;;8.01;45.41;101639.34;5053279;27;97255;-83
2023/02/04 09:24:55;;;;;;;4.93;2.53;;;;;;;7.89;45.97;101640.22;5001471;27;101710;-82
2023/02/04 09:27:20;;;;;;;3.30;1.98;;;;;;;7.81;46.56;101647.22;5014603;27;102680;-82
2023/02/04 09:29:46;;;;;;;5.88;2.75;;;;;;;7.66;46.74;101645.50;5012193;27;98387;-82
2023/02/04 09:32:12;;;;;;;9.63;3.15;;;;;;;7.58;46.73;101647.22;5009165;27;97272;-82
2023/02/04 09:34:37;;;;;;;4.82;2.47;;;;;;;7.40;46.93;101651.59;5028976;27;98099;-81
2023/02/04 09:37:03;;;;;;;4.93;2.33;;;;;;;7.21;47.40;101642.88;5016634;27;98624;-81
2023/02/04 09:39:28;;;;;;;3.30;2.17;;;;;;;7.17;47.67;101645.50;5033995;27;96844;-82
2023/02/04 09:41:54;;;;;;;4.78;2.22;;;;;;;7.03;47.82;101654.16;4995354;27;97655;-82
2023/02/04 09:44:22;;;;;;;5.47;2.17;;;;;;;6.73;48.02;101636.69;5005124;27;100962;-82
2023/02/04 09:46:53;;;;;;;3.53;2.33;;;;;;;6.89;47.91;101679.34;5012543;27;97325;-82
2023/02/04 09:49:19;;;;;;;2.70;1.83;;;;;;;6.85;48.30;101684.59;4997893;27;97445;-83
2023/02/04 09:51:45;;;;;;;4.65;2.25;;;;;;;6.76;48.88;101668.03;5000814;28;97944;-82
2023/02/04 09:54:14;;;;;;;5.93;2.17;;;;;;;6.71;48.71;101671.50;5001317;27;98485;-80
2023/02/04 09:56:40;;;;;;;2.97;2.10;;;;;;;6.69;48.85;101675.81;5011281;27;101600;-81
2023/02/04 09:59:11;;;;;;;4.57;2.10;;;;;;;6.45;48.71;101646.16;5014946;27;97280;-82
2023/02/04 10:01:36;;;;;;;4.73;2.30;;;;;;;6.48;48.94;101658.34;5030192;27;97241;-83
2023/02/04 10:04:02;;;;;;;4.07;2.35;;;;;;;6.40;49.43;101675.69;5022612;28;98366;-82
2023/02/04 10:06:27;;;;;;;4.80;2.58;;;;;;;6.30;49.45;101666.97;5011125;27;99950;-83
2023/02/04 10:08:53;;;;;;;5.30;2.58;;;;;;;6.30;49.67;101666.97;4992077;27;97216;-83
2023/02/04 10:11:21;;;;;;;3.92;2.30;;;;;;;6.45;49.98;101705.28;5006698;27;97039;-82
2023/02/04 10:13:52;;;;;;;6.90;2.85;;;;;;;6.42;50.00;101705.28;5013278;27;100891;-82
2023/02/04 10:16:29;;;;;;;8.68;3.05;;;;;;;6.47;49.98;101704.44;4986916;27;101677;-83
2023/02/04 10:18:57;;;;;;;5.93;2.85;;;;;;;6.45;50.30;101692.25;5012689;27;97815;-84
2023/02/04 10:21:35;;;;;;;7.07;3.38;;;;;;;6.44;50.63;101694.00;4995829;28;97227;-78
2023/02/04 10:24:03;;;;;;;4.88;2.80;;;;;;;6.50;50.68;101703.59;5031225;27;101482;-78
2023/02/04 10:26:30;;;;;;;4.75;2.85;;;;;;;6.47;50.51;101714.88;5042860;27;97874;-79
2023/02/04 10:29:02;;;;;;;4.15;2.20;;;;;;;6.38;50.18;101709.63;5035934;27;98053;-78
2023/02/04 10:31:38;;;;;;;3.28;2.00;;;;;;;6.33;50.81;101720.00;5064154;27;97333;-76
2023/02/04 10:34:11;;;;;;;4.93;2.65;;;;;;;6.29;50.31;101723.47;5031199;27;101340;-77
2023/02/04 10:36:38;;;;;;;5.13;2.60;;;;;;;6.26;50.49;101725.19;5068979;27;101335;-76
2023/02/04 10:39:16;;;;;;;4.90;2.30;;;;;;;6.27;50.15;101733.03;5049670;27;98011;-76
2023/02/04 10:41:50;;;;;;;4.67;2.73;;;;;;;6.19;50.22;101731.22;5060617;27;97385;-84
2023/02/04 10:44:30;;;;;;;4.97;2.55;;;;;;;6.08;49.96;101732.03;5027965;27;100370;-83
2023/02/04 10:47:04;;;;;;;4.07;2.40;;;;;;;6.03;50.63;101728.53;5029120;27;100344;-82
2023/02/04 10:49:30;;;;;;;5.73;2.60;;;;;;;6.10;50.44;101725.09;5033063;27;97332;-83
2023/02/04 10:51:56;;;;;;;4.17;2.03;;;;;;;6.16;50.63;101737.28;5053107;27;97383;-82
2023/02/04 10:54:31;;;;;;;3.40;2.00;;;;;;;6.21;50.19;101748.63;5034572;27;101252;-83
2023/02/04 10:57:01;;;;;;;6.68;2.97;;;;;;;6.25;50.03;101744.31;5032471;27;101442;-83
2023/02/04 10:59:27;;;;;;;5.37;2.73;;;;;;;6.15;50.39;101735.56;5051174;27;97360;-82
2023/02/04 11:01:57;;;;;;;7.57;2.55;;;;;;;6.28;50.34;101750.44;5038259;27;96867;-83
2023/02/04 11:04:23;;;;;;;4.80;2.27;;;;;;;6.22;50.18;101749.50;5039923;27;101731;-82
2023/02/04 11:06:50;;;;;;;5.03;2.10;;;;;;;6.32;50.16;101764.34;5032705;27;101302;-79
2023/02/04 11:09:16;;;;;;;3.90;2.53;;;;;;;6.25;49.79;101754.72;5070429;27;96726;-82
2023/02/04 11:11:48;;;;;;;4.07;2.40;;;;;;;6.34;49.94;101763.50;5070917;27;96938;-79
2023/02/04 11:14:29;;;;;;;5.30;2.70;;;;;;;6.22;49.95;101752.97;5060556;27;98668;-81
2023/02/04 11:17:00;;;;;;;4.20;2.20;;;;;;;6.24;49.56;101751.25;5050114;27;101179;-80
2023/02/04 11:19:37;;;;;;;5.07;2.55;;;;;;;6.27;49.52;101753.00;5055207;27;97366;-80
2023/02/04 11:22:22;;;;;;;5.67;2.73;;;;;;;6.37;49.54;101767.88;5037829;27;96849;-80
2023/02/04 11:24:48;;;;;;;7.50;2.83;;;;;;;6.38;49.61;101771.34;5073096;27;98110;-80
2023/02/04 11:27:35;;;;;;;6.47;2.27;;;;;;;6.37;49.13;101773.09;5072246;27;97300;-80
2023/02/04 11:30:17;;;;;;;5.27;1.90;;;;;;;6.36;48.72;101776.53;5057102;27;97496;-79